Time;durP1;ratioP1;P1;durP2;ratioP2;P2;SDS_P1;SDS_P2;PMS_P1;PMS_P2;Temp;Humidity;BMP_temperature;BMP_pressure;BME280_temperature;BME280_humidity;BME280_pressure;Samples;Min_cycle;Max_cycle;Signal;HPM_P1;HPM_P2
2023/04/13 00:00:50;;;;;;;4.90;3.85;;;5.90;99.90;;;;;;5079148;28;20076;-34
2023/04/13 00:03:17;;;;;;;5.05;3.72;;;6.00;99.90;;;;;;5063762;28;20107;-34
2023/04/13 00:05:44;;;;;;;5.72;4.03;;;6.00;99.90;;;;;;5059921;28;20041;-34
2023/04/13 00:08:10;;;;;;;4.13;3.60;;;6.20;99.90;;;;;;5079432;28;20044;-34
2023/04/13 00:10:40;;;;;;;7.20;4.15;;;6.20;99.90;;;;;;5085697;28;20045;-34
2023/04/13 00:13:07;;;;;;;5.18;4.65;;;6.40;99.90;;;;;;5079634;28;20408;-34
2023/04/13 00:15:36;;;;;;;5.45;3.50;;;6.40;99.90;;;;;;5073246;28;20544;-34
2023/04/13 00:18:04;;;;;;;5.75;3.75;;;6.50;99.90;;;;;;5078112;28;20500;-35
2023/04/13 00:20:29;;;;;;;6.20;3.85;;;6.60;99.90;;;;;;5084663;28;20070;-35
2023/04/13 00:22:55;;;;;;;3.58;3.28;;;6.70;99.90;;;;;;5069021;28;20067;-35
2023/04/13 00:25:21;;;;;;;4.28;2.55;;;6.80;99.90;;;;;;5079137;28;20045;-34
2023/04/13 00:27:51;;;;;;;3.30;2.25;;;6.90;99.90;;;;;;5081642;28;20495;-35
2023/04/13 00:30:18;;;;;;;3.05;2.28;;;7.00;99.90;;;;;;5055322;28;20402;-35
2023/04/13 00:32:44;;;;;;;4.78;2.33;;;7.10;99.90;;;;;;5066438;28;20037;-35
2023/04/13 00:35:14;;;;;;;5.20;2.75;;;7.10;99.90;;;;;;5067322;28;20041;-35
2023/04/13 00:37:41;;;;;;;4.53;2.78;;;7.10;99.90;;;;;;5070654;28;20131;-35
2023/04/13 00:40:08;;;;;;;3.92;2.47;;;7.10;99.90;;;;;;5087240;28;20080;-35
2023/04/13 00:42:35;;;;;;;3.83;2.50;;;7.10;99.90;;;;;;5080622;28;20548;-35
2023/04/13 00:45:01;;;;;;;3.60;2.80;;;7.10;99.90;;;;;;5087652;28;20153;-35
2023/04/13 00:47:31;;;;;;;5.32;2.70;;;7.00;99.90;;;;;;5087203;28;20040;-35
2023/04/13 00:49:59;;;;;;;5.03;3.05;;;6.90;99.90;;;;;;5087479;28;20519;-35
2023/04/13 00:52:25;;;;;;;4.82;2.65;;;6.80;99.90;;;;;;5087619;28;20036;-35
2023/04/13 00:54:55;;;;;;;5.80;2.30;;;6.60;99.90;;;;;;5071959;28;20047;-35
2023/04/13 00:57:22;;;;;;;3.45;2.67;;;6.70;99.90;;;;;;5074917;28;20038;-35
2023/04/13 00:59:49;;;;;;;3.38;2.70;;;6.70;99.90;;;;;;5067971;28;20478;-35
2023/04/13 01:02:23;;;;;;;5.30;2.90;;;6.70;99.90;;;;;;5061923;28;20037;-35
2023/04/13 01:04:49;;;;;;;4.60;2.78;;;6.50;99.90;;;;;;5063831;28;20115;-35
2023/04/13 01:07:31;;;;;;;5.05;2.63;;;6.50;99.90;;;;;;5069841;28;20037;-35
2023/04/13 01:10:15;;;;;;;4.60;2.72;;;6.50;99.90;;;;;;5066227;28;20556;-35
2023/04/13 01:12:45;;;;;;;4.03;2.38;;;6.40;99.90;;;;;;5070787;28;20036;-35
2023/04/13 01:15:13;;;;;;;3.60;2.08;;;6.50;99.90;;;;;;5064706;28;20119;-35
2023/04/13 01:17:43;;;;;;;3.35;2.10;;;6.60;99.90;;;;;;5063345;28;20046;-35
2023/04/13 01:20:14;;;;;;;4.25;2.20;;;6.50;99.90;;;;;;5081091;28;20048;-35
2023/04/13 01:22:54;;;;;;;2.95;2.30;;;6.40;99.90;;;;;;5071289;28;20076;-34
2023/04/13 01:25:50;;;;;;;4.07;2.30;;;6.40;99.90;;;;;;5068730;28;20037;-34
2023/04/13 01:28:18;;;;;;;2.42;2.00;;;6.40;99.90;;;;;;5064699;28;20107;-34
2023/04/13 01:30:48;;;;;;;2.92;2.15;;;6.50;99.90;;;;;;5081792;28;20064;-34
2023/04/13 01:33:15;;;;;;;3.42;1.65;;;6.40;99.90;;;;;;5054823;28;20516;-34
2023/04/13 01:35:41;;;;;;;2.03;1.83;;;6.30;99.90;;;;;;5080950;28;20033;-34
2023/04/13 01:38:07;;;;;;;3.80;1.50;;;6.40;99.90;;;;;;5072185;28;20044;-34
2023/04/13 01:40:39;;;;;;;2.20;1.80;;;6.20;99.90;;;;;;5068099;28;20052;-34
2023/04/13 01:43:06;;;;;;;5.07;1.95;;;6.40;99.90;;;;;;5068972;28;20102;-34
2023/04/13 01:45:51;;;;;;;2.75;1.63;;;6.40;99.90;;;;;;5076212;28;20443;-34
2023/04/13 01:48:41;;;;;;;3.15;1.50;;;6.40;99.90;;;;;;5083436;28;20119;-34
2023/04/13 01:51:08;;;;;;;2.60;2.20;;;6.50;99.90;;;;;;5108963;28;20119;-34
2023/04/13 01:53:41;;;;;;;4.60;1.77;;;6.50;99.90;;;;;;5084938;28;20041;-34
2023/04/13 01:56:07;;;;;;;5.75;2.13;;;6.50;99.90;;;;;;5060789;28;20041;-34
2023/04/13 01:58:35;;;;;;;3.03;1.80;;;6.50;99.90;;;;;;5064213;28;20120;-34
2023/04/13 02:01:06;;;;;;;3.95;2.13;;;6.40;99.90;;;;;;5076919;28;20524;-34
2023/04/13 02:03:33;;;;;;;3.40;2.20;;;6.50;99.90;;;;;;5072854;28;20040;-34
2023/04/13 02:06:00;;;;;;;2.70;1.85;;;6.50;99.90;;;;;;5080770;28;20497;-34
2023/04/13 02:08:26;;;;;;;3.20;1.95;;;6.40;99.90;;;;;;5088881;28;20108;-34
2023/04/13 02:10:51;;;;;;;3.33;1.65;;;6.50;99.90;;;;;;5086016;28;20040;-34
2023/04/13 02:13:17;;;;;;;4.18;1.90;;;6.40;99.90;;;;;;5065910;28;20068;-34
2023/04/13 02:15:43;;;;;;;2.13;1.92;;;6.30;99.90;;;;;;5070187;28;20106;-34
2023/04/13 02:18:10;;;;;;;2.95;2.45;;;6.20;99.90;;;;;;5107150;28;20040;-34
2023/04/13 02:20:44;;;;;;;4.32;2.00;;;6.40;99.90;;;;;;5069309;28;20488;-34
2023/04/13 02:23:13;;;;;;;4.13;2.20;;;6.30;99.90;;;;;;5069021;28;20094;-34
2023/04/13 02:25:41;;;;;;;4.15;2.00;;;6.40;99.90;;;;;;5066788;28;20516;-34
2023/04/13 02:28:08;;;;;;;5.75;2.10;;;6.40;99.90;;;;;;5079155;28;20512;-34
2023/04/13 02:30:34;;;;;;;5.88;2.28;;;6.40;99.90;;;;;;5075597;28;20041;-34
2023/04/13 02:32:59;;;;;;;5.05;2.30;;;6.30;99.90;;;;;;5071767;28;20431;-34
2023/04/13 02:35:26;;;;;;;4.47;2.15;;;6.40;99.90;;;;;;5069878;28;20033;-34
2023/04/13 02:37:52;;;;;;;4.57;2.17;;;6.30;99.90;;;;;;5071322;28;20047;-34
2023/04/13 02:40:18;;;;;;;2.78;1.90;;;6.40;99.90;;;;;;5069676;28;20036;-34
2023/04/13 02:42:44;;;;;;;3.33;2.17;;;6.40;99.90;;;;;;5081039;28;20051;-34
2023/04/13 02:45:16;;;;;;;3.40;1.95;;;6.30;99.90;;;;;;5071698;28;20036;-34
2023/04/13 02:47:43;;;;;;;2.22;1.90;;;6.20;99.90;;;;;;5078370;28;20139;-35
2023/04/13 02:50:10;;;;;;;1.55;1.45;;;6.40;99.90;;;;;;5075782;28;20041;-34
2023/04/13 02:52:36;;;;;;;4.00;2.05;;;6.30;99.90;;;;;;5071514;28;20032;-34
2023/04/13 02:55:03;;;;;;;3.85;2.10;;;6.40;99.90;;;;;;5085546;28;20041;-34
2023/04/13 02:57:30;;;;;;;2.10;1.83;;;6.40;99.90;;;;;;5051792;28;20052;-34
2023/04/13 02:59:56;;;;;;;3.45;1.80;;;6.40;99.90;;;;;;5081801;28;20041;-34
2023/04/13 03:02:25;;;;;;;2.35;1.80;;;6.40;99.90;;;;;;5071481;28;20047;-34
2023/04/13 03:04:51;;;;;;;1.98;1.67;;;6.40;99.90;;;;;;5071693;28;20032;-34
2023/04/13 03:07:17;;;;;;;3.92;2.20;;;6.50;99.90;;;;;;5071615;28;20094;-34
2023/04/13 03:09:47;;;;;;;2.88;1.90;;;6.40;99.90;;;;;;5072180;28;20109;-34
2023/04/13 03:12:12;;;;;;;3.53;2.08;;;6.00;99.90;;;;;;5057638;28;20116;-35
2023/04/13 03:14:38;;;;;;;2.63;1.83;;;6.40;99.90;;;;;;5088385;28;20135;-35
2023/04/13 03:17:06;;;;;;;3.53;2.80;;;6.20;99.90;;;;;;5070364;28;20043;-34
2023/04/13 03:19:32;;;;;;;2.38;2.10;;;6.30;99.90;;;;;;5060365;28;20047;-34
2023/04/13 03:21:57;;;;;;;4.05;2.10;;;6.30;99.90;;;;;;5088331;28;20040;-35
2023/04/13 03:24:26;;;;;;;5.00;2.92;;;6.30;99.90;;;;;;5075590;28;20531;-35
2023/04/13 03:26:56;;;;;;;4.97;2.28;;;6.20;99.90;;;;;;5080973;28;20085;-35
2023/04/13 03:29:25;;;;;;;6.15;2.35;;;6.30;99.90;;;;;;5072426;28;20384;-35
2023/04/13 03:31:51;;;;;;;3.00;2.63;;;6.10;99.90;;;;;;5062828;28;20102;-34
2023/04/13 03:34:17;;;;;;;4.28;2.20;;;6.60;99.90;;;;;;5070805;28;20072;-35
2023/04/13 03:36:43;;;;;;;3.70;2.30;;;6.20;99.90;;;;;;5063786;28;20033;-35
2023/04/13 03:39:09;;;;;;;2.95;2.13;;;6.50;99.90;;;;;;5092241;28;20124;-35
2023/04/13 03:41:35;;;;;;;4.13;2.35;;;6.30;99.90;;;;;;5069554;28;20127;-35
2023/04/13 03:44:00;;;;;;;3.40;2.60;;;6.20;99.90;;;;;;5067497;28;20032;-34
2023/04/13 03:46:26;;;;;;;4.35;2.70;;;6.20;99.90;;;;;;5061125;28;20036;-35
2023/04/13 03:48:52;;;;;;;3.80;2.60;;;6.30;99.90;;;;;;5072352;28;20031;-37
2023/04/13 03:51:17;;;;;;;6.15;2.75;;;6.20;99.90;;;;;;5066315;28;20035;-35
2023/04/13 03:53:43;;;;;;;3.03;2.42;;;6.40;99.90;;;;;;5078754;28;20036;-35
2023/04/13 03:56:09;;;;;;;4.28;2.85;;;6.60;99.90;;;;;;5081195;28;20032;-34
2023/04/13 03:58:35;;;;;;;4.30;2.85;;;6.30;99.90;;;;;;5066507;28;20099;-35
2023/04/13 04:01:00;;;;;;;3.17;2.50;;;6.40;99.90;;;;;;5065808;28;20040;-35
2023/04/13 04:03:26;;;;;;;3.25;2.70;;;6.60;99.90;;;;;;5067552;28;20036;-34
2023/04/13 04:05:52;;;;;;;5.53;2.55;;;6.40;99.90;;;;;;5071119;28;20128;-35
2023/04/13 04:08:17;;;;;;;3.67;2.75;;;6.60;99.90;;;;;;5079587;28;20032;-35
2023/04/13 04:10:43;;;;;;;5.20;2.90;;;6.40;99.90;;;;;;5074561;28;20039;-35
2023/04/13 04:13:09;;;;;;;3.28;2.97;;;6.60;99.90;;;;;;5072127;28;20079;-35
2023/04/13 04:15:34;;;;;;;3.67;2.60;;;6.50;99.90;;;;;;5086198;28;20041;-35
2023/04/13 04:18:00;;;;;;;7.85;3.30;;;6.50;99.90;;;;;;5077883;28;20086;-35
2023/04/13 04:20:26;;;;;;;4.47;2.80;;;6.60;99.90;;;;;;5070534;28;20454;-35
2023/04/13 04:22:52;;;;;;;4.90;2.72;;;6.40;99.90;;;;;;5077855;28;20049;-35
2023/04/13 04:25:26;;;;;;;4.78;3.03;;;6.60;99.90;;;;;;5062432;28;20182;-35
2023/04/13 04:27:56;;;;;;;3.53;3.13;;;6.60;99.90;;;;;;5070981;28;20413;-35
2023/04/13 04:30:23;;;;;;;4.85;3.50;;;6.60;99.90;;;;;;5087883;28;20458;-35
2023/04/13 04:32:51;;;;;;;5.22;3.25;;;6.60;99.90;;;;;;5067409;28;20064;-35
2023/04/13 04:35:24;;;;;;;7.32;4.82;;;6.60;99.90;;;;;;5077527;28;20036;-35
2023/04/13 04:37:54;;;;;;;4.07;3.38;;;6.50;99.90;;;;;;5070441;28;20045;-35
2023/04/13 04:40:21;;;;;;;6.50;3.90;;;6.50;99.90;;;;;;5067473;28;20041;-36
2023/04/13 04:42:47;;;;;;;5.70;4.07;;;6.70;99.90;;;;;;5059405;28;20045;-36
2023/04/13 04:45:15;;;;;;;6.85;4.28;;;6.90;99.90;;;;;;5073669;28;20083;-36
2023/04/13 04:47:44;;;;;;;8.10;3.47;;;6.60;99.90;;;;;;5073488;28;20047;-36
2023/04/13 04:50:11;;;;;;;4.15;2.97;;;6.50;99.90;;;;;;5064646;28;20043;-36
2023/04/13 04:52:38;;;;;;;4.40;3.40;;;6.50;99.90;;;;;;5066977;28;20040;-36
2023/04/13 04:55:05;;;;;;;5.72;3.20;;;6.50;99.90;;;;;;5064602;28;20519;-36
2023/04/13 04:57:32;;;;;;;4.00;3.60;;;6.60;99.90;;;;;;5093057;28;20424;-37
2023/04/13 04:59:58;;;;;;;3.63;3.17;;;6.40;99.90;;;;;;5074569;28;20044;-36
2023/04/13 05:02:24;;;;;;;3.95;3.25;;;6.40;99.90;;;;;;5070163;28;20291;-36
2023/04/13 05:04:52;;;;;;;4.90;3.05;;;6.10;99.90;;;;;;5070780;28;20032;-35
2023/04/13 05:07:18;;;;;;;5.57;3.30;;;6.30;99.90;;;;;;5065088;28;20397;-34
2023/04/13 05:09:44;;;;;;;4.07;3.00;;;6.10;99.90;;;;;;5074818;28;20044;-34
2023/04/13 05:12:10;;;;;;;4.53;3.22;;;6.10;99.90;;;;;;5058332;28;20509;-34
2023/04/13 05:14:36;;;;;;;3.60;2.72;;;6.00;99.90;;;;;;5054085;28;20063;-34
2023/04/13 05:17:02;;;;;;;3.90;3.30;;;6.00;99.90;;;;;;5054024;28;20045;-34
2023/04/13 05:19:28;;;;;;;4.40;3.20;;;5.90;99.90;;;;;;5054095;28;20367;-34
2023/04/13 05:21:54;;;;;;;3.55;3.00;;;6.00;99.90;;;;;;5054218;28;20052;-34
2023/04/13 05:24:20;;;;;;;6.05;3.63;;;5.90;99.90;;;;;;5067238;28;20046;-34
2023/04/13 05:26:46;;;;;;;5.13;3.17;;;6.10;99.90;;;;;;5074127;28;20063;-34
2023/04/13 05:29:11;;;;;;;4.88;3.47;;;5.70;99.90;;;;;;5073764;28;20477;-33
2023/04/13 05:31:37;;;;;;;5.10;3.50;;;6.10;99.90;;;;;;5073968;28;20040;-34
2023/04/13 05:34:03;;;;;;;5.70;3.60;;;6.00;99.90;;;;;;5073507;28;20121;-34
2023/04/13 05:36:31;;;;;;;7.97;3.75;;;5.90;99.90;;;;;;5073879;28;20040;-34
2023/04/13 05:39:01;;;;;;;7.68;4.68;;;6.10;99.90;;;;;;5073549;28;20428;-34
2023/04/13 05:41:27;;;;;;;6.53;4.93;;;5.90;99.90;;;;;;5073704;28;20036;-34
2023/04/13 05:43:52;;;;;;;6.88;4.25;;;6.10;99.90;;;;;;5073690;28;20043;-34
2023/04/13 05:46:18;;;;;;;6.50;4.40;;;6.10;99.90;;;;;;5073737;28;20047;-34
2023/04/13 05:48:44;;;;;;;9.32;5.30;;;6.20;99.90;;;;;;5073707;28;20040;-34
2023/04/13 05:51:11;;;;;;;6.60;5.20;;;6.20;99.90;;;;;;5073777;28;20094;-34
2023/04/13 05:53:37;;;;;;;13.35;5.78;;;6.50;99.90;;;;;;5073700;28;20040;-34
2023/04/13 05:56:03;;;;;;;7.53;5.57;;;6.50;99.90;;;;;;5073363;28;20076;-35
2023/04/13 05:58:30;;;;;;;9.48;5.82;;;6.60;99.90;;;;;;5073177;28;20051;-33
2023/04/13 06:00:56;;;;;;;8.70;5.68;;;6.70;99.90;;;;;;5073235;28;20041;-33
2023/04/13 06:03:22;;;;;;;7.65;5.28;;;6.70;99.90;;;;;;5073345;28;20428;-33
2023/04/13 06:05:48;;;;;;;12.20;5.65;;;6.90;99.90;;;;;;5072880;28;20051;-33
2023/04/13 06:08:13;;;;;;;6.57;4.95;;;6.80;99.90;;;;;;5072853;28;20131;-33
2023/04/13 06:10:40;;;;;;;8.63;5.43;;;6.90;99.90;;;;;;5072017;28;20444;-33
2023/04/13 06:13:07;;;;;;;10.23;6.03;;;6.90;99.90;;;;;;5055926;28;20082;-33
2023/04/13 06:15:41;;;;;;;7.18;4.95;;;6.90;99.90;;;;;;5053209;28;20390;-33
2023/04/13 06:18:07;;;;;;;8.00;4.65;;;7.10;99.90;;;;;;5053039;28;20087;-33
2023/04/13 06:20:33;;;;;;;9.15;4.95;;;7.00;99.90;;;;;;5053247;28;20424;-33
2023/04/13 06:22:59;;;;;;;9.23;4.90;;;6.90;99.90;;;;;;5036013;28;20049;-34
2023/04/13 06:25:25;;;;;;;7.80;5.00;;;6.90;99.90;;;;;;5065950;28;20503;-34
2023/04/13 06:27:52;;;;;;;7.05;4.93;;;7.20;99.90;;;;;;5089802;28;20489;-34
2023/04/13 06:30:18;;;;;;;9.23;5.20;;;7.10;99.90;;;;;;5089930;28;20072;-33
2023/04/13 06:32:44;;;;;;;7.82;4.97;;;7.20;99.90;;;;;;5089502;28;20043;-33
2023/04/13 06:35:10;;;;;;;7.60;4.50;;;7.20;99.90;;;;;;5089774;28;20485;-34
2023/04/13 06:37:36;;;;;;;8.05;4.78;;;7.20;99.90;;;;;;5089542;28;20037;-34
2023/04/13 06:40:11;;;;;;;8.30;5.47;;;7.40;99.90;;;;;;5067886;28;20041;-35
2023/04/13 06:42:41;;;;;;;10.77;5.20;;;7.50;99.90;;;;;;5058117;28;20044;-35
2023/04/13 06:45:11;;;;;;;7.47;4.97;;;7.50;99.90;;;;;;5078396;28;20370;-37
2023/04/13 06:47:41;;;;;;;7.05;4.45;;;7.70;99.90;;;;;;5053018;28;20068;-37
2023/04/13 06:50:08;;;;;;;7.18;4.80;;;7.70;99.90;;;;;;5073482;28;20036;-37
2023/04/13 06:52:34;;;;;;;8.30;4.88;;;7.90;99.90;;;;;;5068743;28;20071;-39
2023/04/13 06:55:00;;;;;;;7.70;5.90;;;8.10;99.90;;;;;;5077923;28;20025;-40
2023/04/13 06:57:26;;;;;;;6.15;4.72;;;8.10;99.90;;;;;;5065090;28;20049;-44
2023/04/13 06:59:52;;;;;;;8.68;5.45;;;8.30;99.90;;;;;;5071130;28;20474;-37
2023/04/13 07:02:17;;;;;;;8.23;4.90;;;8.30;99.90;;;;;;5070441;28;20049;-37
2023/04/13 07:04:43;;;;;;;8.35;5.10;;;8.40;99.90;;;;;;5078735;28;20052;-36
2023/04/13 07:07:09;;;;;;;8.57;4.50;;;8.40;99.90;;;;;;5075075;28;20070;-37
2023/04/13 07:09:35;;;;;;;5.82;3.92;;;8.30;99.90;;;;;;5069927;28;20039;-34
2023/04/13 07:12:04;;;;;;;5.47;4.32;;;8.30;99.90;;;;;;5078835;28;20449;-34
2023/04/13 07:14:35;;;;;;;8.52;4.50;;;8.50;99.90;;;;;;5086620;28;20033;-34
2023/04/13 07:17:01;;;;;;;9.05;4.32;;;8.40;99.90;;;;;;5070738;28;20037;-42
2023/04/13 07:19:29;;;;;;;7.93;4.70;;;8.40;99.90;;;;;;5071292;28;20044;-38
2023/04/13 07:21:56;;;;;;;7.28;4.18;;;8.50;99.90;;;;;;5059627;28;20045;-37
2023/04/13 07:24:22;;;;;;;4.55;3.25;;;8.40;99.90;;;;;;5065975;28;20093;-37
2023/04/13 07:26:48;;;;;;;6.20;4.10;;;8.50;99.90;;;;;;5069569;28;20120;-38
2023/04/13 07:29:17;;;;;;;8.45;3.95;;;8.50;99.90;;;;;;5070656;28;20512;-38
2023/04/13 07:31:43;;;;;;;6.20;4.07;;;8.40;99.90;;;;;;5068240;28;20039;-38
2023/04/13 07:34:09;;;;;;;5.75;3.45;;;8.50;99.90;;;;;;5091773;28;20029;-39
2023/04/13 07:36:35;;;;;;;6.53;3.28;;;8.40;99.90;;;;;;5047380;28;20082;-38
2023/04/13 07:39:02;;;;;;;4.43;3.92;;;8.50;99.90;;;;;;5069955;28;20037;-37
2023/04/13 07:41:29;;;;;;;8.38;3.00;;;8.50;99.90;;;;;;5069094;28;20083;-37
2023/04/13 07:43:54;;;;;;;5.90;3.08;;;8.50;99.90;;;;;;5045216;28;20065;-37
2023/04/13 07:46:25;;;;;;;6.07;2.80;;;8.70;99.90;;;;;;5069446;28;20532;-38
2023/04/13 07:48:55;;;;;;;5.00;2.60;;;8.70;99.90;;;;;;5058566;28;20037;-39
2023/04/13 07:51:21;;;;;;;4.95;2.40;;;8.80;99.90;;;;;;5075799;28;20485;-38
2023/04/13 07:53:46;;;;;;;4.75;2.67;;;8.80;99.90;;;;;;5072231;28;20040;-38
2023/04/13 07:56:13;;;;;;;4.75;2.30;;;9.10;99.90;;;;;;5067424;28;20045;-41
2023/04/13 07:58:40;;;;;;;3.83;2.25;;;9.10;99.90;;;;;;5064985;28;20131;-41
2023/04/13 08:01:06;;;;;;;2.90;2.55;;;9.10;99.90;;;;;;5069688;28;20440;-38
2023/04/13 08:03:33;;;;;;;3.83;2.30;;;9.20;99.90;;;;;;5063983;28;20037;-37
2023/04/13 08:05:59;;;;;;;4.65;2.20;;;9.00;99.90;;;;;;5087270;28;20041;-37
2023/04/13 08:08:25;;;;;;;3.90;2.28;;;9.20;99.90;;;;;;5063622;28;20032;-37
2023/04/13 08:10:51;;;;;;;3.03;2.00;;;9.30;99.90;;;;;;5066613;28;20024;-38
2023/04/13 08:13:17;;;;;;;4.05;2.10;;;9.30;99.90;;;;;;5064807;28;20108;-38
2023/04/13 08:15:43;;;;;;;5.75;2.55;;;9.40;99.90;;;;;;5064425;28;20040;-37
2023/04/13 08:18:09;;;;;;;4.22;2.13;;;9.40;99.90;;;;;;5068716;28;20044;-38
2023/04/13 08:20:36;;;;;;;3.63;2.10;;;9.60;99.90;;;;;;5066836;28;20041;-38
2023/04/13 08:23:02;;;;;;;6.47;2.95;;;9.70;99.90;;;;;;5044782;28;20418;-37
2023/04/13 08:25:28;;;;;;;4.70;1.92;;;9.90;99.90;;;;;;5069305;28;20044;-40
2023/04/13 08:27:55;;;;;;;3.38;2.50;;;10.10;99.90;;;;;;5070318;28;20036;-40
2023/04/13 08:30:21;;;;;;;3.35;1.90;;;10.10;99.90;;;;;;5067999;28;20063;-37
2023/04/13 08:32:47;;;;;;;4.43;2.20;;;10.00;99.90;;;;;;5067045;28;20112;-38
2023/04/13 08:35:13;;;;;;;5.25;2.95;;;10.00;99.90;;;;;;5072220;28;20500;-37
2023/04/13 08:37:39;;;;;;;4.82;2.63;;;9.90;99.90;;;;;;5074256;28;20055;-37
2023/04/13 08:40:06;;;;;;;5.38;3.25;;;9.60;99.90;;;;;;5074945;28;20036;-40
2023/04/13 08:42:36;;;;;;;4.57;3.28;;;9.60;99.90;;;;;;5071978;28;20503;-37
2023/04/13 08:45:02;;;;;;;4.82;3.30;;;9.50;99.90;;;;;;5073675;28;20045;-38
2023/04/13 08:47:28;;;;;;;5.88;3.63;;;9.40;99.90;;;;;;5087847;28;20521;-38
2023/04/13 08:49:59;;;;;;;5.78;3.50;;;9.40;99.90;;;;;;5073084;28;20274;-37
2023/04/13 08:52:27;;;;;;;6.28;4.25;;;9.30;99.90;;;;;;5055116;28;20394;-38
2023/04/13 08:54:54;;;;;;;5.70;3.75;;;9.30;99.90;;;;;;5072922;28;20040;-36
2023/04/13 08:57:21;;;;;;;6.90;3.72;;;9.20;99.90;;;;;;5080142;28;20071;-36
2023/04/13 08:59:50;;;;;;;5.35;3.25;;;9.10;99.90;;;;;;5073232;28;20048;-36
2023/04/13 09:02:22;;;;;;;3.85;2.63;;;9.10;99.90;;;;;;5087267;28;20041;-37
2023/04/13 09:04:51;;;;;;;5.68;2.92;;;9.10;99.90;;;;;;5079706;28;20036;-36
2023/04/13 09:07:26;;;;;;;5.65;2.92;;;9.00;99.90;;;;;;5082274;28;20048;-36
2023/04/13 09:09:57;;;;;;;4.50;3.33;;;8.90;99.90;;;;;;5073217;28;20078;-37
2023/04/13 09:12:26;;;;;;;5.55;3.30;;;8.80;99.90;;;;;;5089900;28;20108;-37
2023/04/13 09:14:53;;;;;;;4.50;3.35;;;8.70;99.90;;;;;;5060416;28;20037;-36
2023/04/13 09:17:26;;;;;;;4.03;2.00;;;8.50;99.90;;;;;;5069780;28;20393;-37
2023/04/13 09:19:53;;;;;;;;;;;8.20;99.90;;;;;;5074322;28;20032;-37
2023/04/13 09:22:20;;;;;;;1.10;0.68;;;8.10;99.90;;;;;;5073722;28;19916;-36
2023/04/13 09:24:46;;;;;;;0.60;0.50;;;7.60;99.90;;;;;;5066042;28;20116;-37
2023/04/13 09:27:20;;;;;;;1.70;0.88;;;7.20;99.90;;;;;;5089522;28;20045;-37
2023/04/13 09:29:53;;;;;;;1.05;0.68;;;7.20;99.90;;;;;;5068473;28;20532;-37
2023/04/13 09:32:26;;;;;;;1.45;0.80;;;7.40;99.90;;;;;;5088144;28;20032;-38
2023/04/13 09:35:03;;;;;;;1.15;0.70;;;7.00;99.90;;;;;;5076835;28;20116;-38
2023/04/13 09:37:38;;;;;;;2.28;1.20;;;7.10;99.90;;;;;;5086911;28;20037;-37
2023/04/13 09:40:15;;;;;;;2.42;1.20;;;7.30;99.90;;;;;;5086674;28;20116;-38
2023/04/13 09:42:56;;;;;;;1.83;1.60;;;7.70;99.90;;;;;;5069389;28;20051;-38
2023/04/13 09:45:23;;;;;;;4.03;1.45;;;8.20;99.90;;;;;;5072125;28;20040;-38
2023/04/13 09:47:49;;;;;;;3.90;2.00;;;8.70;99.90;;;;;;5073511;28;20040;-38
2023/04/13 09:50:20;;;;;;;3.58;1.73;;;9.00;99.90;;;;;;5078128;28;20362;-38
2023/04/13 09:52:46;;;;;;;3.33;1.67;;;9.30;99.90;;;;;;5069647;28;20033;-38
2023/04/13 09:55:17;;;;;;;1.80;1.70;;;9.30;99.90;;;;;;5066618;28;20078;-38
2023/04/13 09:57:43;;;;;;;2.33;1.17;;;9.40;99.90;;;;;;5079747;28;20050;-38
2023/04/13 10:00:19;;;;;;;1.00;0.88;;;9.20;99.90;;;;;;5083303;28;20040;-37
2023/04/13 10:02:50;;;;;;;3.28;0.80;;;8.80;99.90;;;;;;5065506;28;20048;-37
2023/04/13 10:05:17;;;;;;;1.55;0.90;;;8.80;99.90;;;;;;5063279;28;20547;-37
2023/04/13 10:07:43;;;;;;;2.67;1.10;;;9.20;99.90;;;;;;5070926;28;20051;-37
2023/04/13 10:10:10;;;;;;;2.25;0.93;;;9.60;99.90;;;;;;5067505;28;20036;-36
2023/04/13 10:12:42;;;;;;;2.83;1.30;;;10.20;99.90;;;;;;5077723;28;20078;-36
2023/04/13 10:15:45;;;;;;;4.22;1.80;;;10.70;99.90;;;;;;5096322;28;20105;-37
2023/04/13 10:18:26;;;;;;;3.85;1.50;;;11.10;99.90;;;;;;5066137;28;20043;-37
2023/04/13 10:20:53;;;;;;;5.80;1.73;;;11.60;99.90;;;;;;5091409;28;20098;-37
2023/04/13 10:23:20;;;;;;;6.10;2.20;;;11.50;99.90;;;;;;5083784;28;20033;-38
2023/04/13 10:25:53;;;;;;;3.67;1.60;;;11.30;99.90;;;;;;5072832;28;20047;-37
2023/04/13 10:28:20;;;;;;;6.30;1.83;;;11.40;99.90;;;;;;5076442;28;20040;-37
2023/04/13 10:30:50;;;;;;;7.13;2.60;;;11.40;99.90;;;;;;5070040;28;20047;-37
2023/04/13 10:33:16;;;;;;;4.40;1.77;;;11.10;99.90;;;;;;5067845;28;20068;-37
2023/04/13 10:35:52;;;;;;;5.35;1.80;;;10.90;99.90;;;;;;5059237;28;20481;-37
2023/04/13 10:38:18;;;;;;;4.95;2.10;;;10.80;99.90;;;;;;5076815;28;20497;-37
2023/04/13 10:40:45;;;;;;;8.85;2.08;;;10.70;99.90;;;;;;5069199;28;20040;-37
2023/04/13 10:43:11;;;;;;;7.40;2.67;;;11.00;99.90;;;;;;5073714;28;20047;-37
2023/04/13 10:45:37;;;;;;;5.10;1.83;;;11.10;99.90;;;;;;5072912;28;20119;-36
2023/04/13 10:48:04;;;;;;;7.30;2.22;;;11.30;99.90;;;;;;5084950;28;20421;-37
2023/04/13 10:50:30;;;;;;;7.68;2.30;;;11.50;99.90;;;;;;5071645;28;20029;-37
2023/04/13 10:52:59;;;;;;;5.70;2.05;;;11.60;99.90;;;;;;5085402;28;20366;-37
2023/04/13 10:55:28;;;;;;;7.85;2.22;;;11.60;99.90;;;;;;5083741;28;20041;-37
2023/04/13 10:57:55;;;;;;;9.18;1.80;;;11.60;99.90;;;;;;5070318;28;20072;-38
2023/04/13 11:00:22;;;;;;;7.85;2.10;;;11.20;99.90;;;;;;5070898;28;20036;-37
2023/04/13 11:02:50;;;;;;;8.63;3.00;;;11.30;99.90;;;;;;5067788;28;20047;-38
2023/04/13 11:05:20;;;;;;;11.13;2.17;;;11.30;99.90;;;;;;5067590;28;20079;-37
2023/04/13 11:07:47;;;;;;;7.03;1.98;;;11.20;99.90;;;;;;5065571;28;20039;-37
2023/04/13 11:10:13;;;;;;;8.13;2.70;;;11.20;99.90;;;;;;5072379;28;20075;-37
2023/04/13 11:12:51;;;;;;;7.88;2.40;;;11.50;99.90;;;;;;5075392;28;20040;-37
2023/04/13 11:15:28;;;;;;;8.63;2.17;;;11.50;99.90;;;;;;5070701;28;20063;-38
2023/04/13 11:17:56;;;;;;;6.65;2.03;;;11.50;99.90;;;;;;5085115;22;20037;-83
2023/04/13 11:20:33;;;;;;;6.28;1.70;;;11.50;99.90;;;;;;5048443;28;20037;-84
2023/04/13 11:23:02;;;;;;;8.70;2.22;;;11.40;99.90;;;;;;5069446;28;20040;-85
2023/04/13 11:25:29;;;;;;;7.68;2.17;;;11.50;99.90;;;;;;5041596;28;20029;-85
2023/04/13 11:28:02;;;;;;;9.55;2.28;;;11.20;99.90;;;;;;5037223;28;20473;-86
2023/04/13 11:30:32;;;;;;;7.00;2.08;;;11.10;99.90;;;;;;5053546;28;20043;-84
2023/04/13 11:32:59;;;;;;;6.15;1.85;;;11.30;99.90;;;;;;5038296;28;20047;-85
2023/04/13 11:35:28;;;;;;;8.38;2.10;;;11.20;99.90;;;;;;5049744;28;20044;-85
2023/04/13 11:37:54;;;;;;;6.75;2.05;;;11.30;99.90;;;;;;5046887;28;20065;-86
2023/04/13 11:40:30;;;;;;;6.63;1.88;;;11.20;99.90;;;;;;5071935;28;20075;-86
2023/04/13 11:42:57;;;;;;;10.20;2.10;;;11.50;99.90;;;;;;5046446;28;20059;-86
2023/04/13 11:45:32;;;;;;;6.53;2.55;;;11.90;99.90;;;;;;5053238;28;20061;-85
2023/04/13 11:47:58;;;;;;;8.77;2.08;;;11.90;99.90;;;;;;5054685;28;20079;-86
2023/04/13 11:50:24;;;;;;;8.23;1.95;;;12.30;99.90;;;;;;5054695;28;20039;-85
2023/04/13 11:52:57;;;;;;;8.15;2.65;;;12.40;99.90;;;;;;5037985;28;20032;-86
2023/04/13 11:55:24;;;;;;;8.27;2.38;;;12.70;99.90;;;;;;5035778;28;20037;-86
2023/04/13 11:57:53;;;;;;;8.07;2.22;;;13.20;99.90;;;;;;5055004;28;20033;-84
2023/04/13 12:00:24;;;;;;;6.63;1.95;;;13.10;99.90;;;;;;5053741;28;20041;-84
2023/04/13 12:02:56;;;;;;;7.00;2.05;;;12.70;99.90;;;;;;5032437;28;20033;-84
2023/04/13 12:05:27;;;;;;;8.13;2.60;;;12.00;99.90;;;;;;5054933;28;20041;-84
2023/04/13 12:07:54;;;;;;;5.28;2.28;;;11.70;99.90;;;;;;5032819;28;20059;-85
2023/04/13 12:10:28;;;;;;;4.63;1.98;;;11.60;99.90;;;;;;5052770;28;20044;-85
2023/04/13 12:13:05;;;;;;;;;;;11.40;99.90;;;;;;5055122;28;20025;-85
2023/04/13 12:15:34;;;;;;;6.43;2.00;;;11.10;99.90;;;;;;5043036;28;20419;-85
2023/04/13 12:18:02;;;;;;;8.90;1.95;;;10.90;99.90;;;;;;5056662;28;20098;-84
2023/04/13 12:20:39;;;;;;;6.80;2.35;;;10.80;99.90;;;;;;5029166;28;20046;-84
2023/04/13 12:23:22;;;;;;;6.85;1.90;;;10.70;99.90;;;;;;5056888;28;20049;-87
2023/04/13 12:25:58;;;;;;;6.20;2.22;;;10.70;99.90;;;;;;5035902;28;20041;-85
2023/04/13 12:28:36;;;;;;;9.77;2.45;;;10.70;99.90;;;;;;5046654;28;20037;-85
2023/04/13 12:31:11;;;;;;;5.72;1.60;;;10.70;99.90;;;;;;5031508;28;20046;-85
2023/04/13 12:33:37;;;;;;;7.25;1.88;;;10.70;99.90;;;;;;5050162;28;20036;-85
2023/04/13 12:36:05;;;;;;;6.65;2.50;;;10.90;99.90;;;;;;5038994;28;20055;-84
2023/04/13 12:38:31;;;;;;;4.78;1.95;;;10.70;99.90;;;;;;5039197;28;20045;-83
2023/04/13 12:40:59;;;;;;;8.93;2.20;;;11.30;99.90;;;;;;5052077;28;20032;-84
2023/04/13 12:43:25;;;;;;;9.90;2.53;;;10.80;99.90;;;;;;5050494;28;20033;-84
2023/04/13 12:45:52;;;;;;;8.63;2.03;;;11.10;99.90;;;;;;5052817;28;20033;-85
2023/04/13 12:48:18;;;;;;;8.25;2.00;;;11.40;99.90;;;;;;5054365;28;20447;-86
2023/04/13 12:50:44;;;;;;;9.50;2.00;;;11.80;99.90;;;;;;5032763;28;20119;-86
2023/04/13 12:53:12;;;;;;;6.45;2.17;;;11.60;99.90;;;;;;5025678;28;20489;-86
2023/04/13 12:55:39;;;;;;;6.45;2.55;;;11.70;99.90;;;;;;5044757;28;20090;-85
2023/04/13 12:58:05;;;;;;;8.40;2.30;;;11.60;99.90;;;;;;5036497;28;20041;-86
2023/04/13 13:00:31;;;;;;;7.50;1.88;;;11.70;99.90;;;;;;5041368;28;20135;-86